Time;durP1;ratioP1;P1;durP2;ratioP2;P2;SDS_P1;SDS_P2;PMS_P1;PMS_P2;Temp;Humidity;BMP_temperature;BMP_pressure;BME280_temperature;BME280_humidity;BME280_pressure;Samples;Min_cycle;Max_cycle;Signal;HPM_P1;HPM_P2
2022/11/27 00:01:23;;;;;;;24.53;15.37;;;-0.50;99.90;;;;;;5117806;28;20448;-74
2022/11/27 00:03:53;;;;;;;19.73;14.47;;;-0.50;99.90;;;;;;5117211;28;20428;-75
2022/11/27 00:06:23;;;;;;;19.33;14.27;;;-0.50;99.90;;;;;;5116809;28;20526;-74
2022/11/27 00:08:53;;;;;;;21.17;15.00;;;-0.50;99.90;;;;;;5117021;28;20468;-76
2022/11/27 00:11:23;;;;;;;18.40;14.50;;;-0.50;99.90;;;;;;5117792;28;20447;-74
2022/11/27 00:13:52;;;;;;;19.30;13.90;;;-0.50;99.90;;;;;;5120582;28;20435;-73
2022/11/27 00:16:24;;;;;;;17.73;13.73;;;-0.50;99.90;;;;;;5123956;28;20447;-76
2022/11/27 00:18:53;;;;;;;18.83;14.63;;;-0.60;99.90;;;;;;5121765;27;20944;-77
2022/11/27 00:21:24;;;;;;;17.67;13.37;;;-0.60;99.90;;;;;;5118846;28;20479;-75
2022/11/27 00:23:54;;;;;;;19.87;13.67;;;-0.60;99.90;;;;;;5117686;28;20455;-78
2022/11/27 00:26:23;;;;;;;18.33;13.57;;;-0.70;99.90;;;;;;5117487;28;20432;-76
2022/11/27 00:28:51;;;;;;;16.67;13.93;;;-0.70;99.90;;;;;;5133043;27;20473;-79
2022/11/27 00:31:22;;;;;;;17.40;14.10;;;-0.70;99.90;;;;;;5138221;27;20451;-76
2022/11/27 00:33:50;;;;;;;18.93;14.30;;;-0.70;99.90;;;;;;5139404;27;20436;-79
2022/11/27 00:36:18;;;;;;;20.60;13.67;;;-0.70;99.90;;;;;;5136827;27;20471;-76
2022/11/27 00:38:46;;;;;;;17.40;13.60;;;-0.80;99.90;;;;;;5123164;28;20448;-74
2022/11/27 00:41:18;;;;;;;19.93;14.60;;;-0.80;99.90;;;;;;5124476;27;20458;-76
2022/11/27 00:43:47;;;;;;;19.57;14.50;;;-0.80;99.90;;;;;;5140299;27;20463;-80
2022/11/27 00:46:15;;;;;;;22.13;16.37;;;-0.90;99.90;;;;;;5123319;28;20458;-79
2022/11/27 00:48:44;;;;;;;22.97;16.50;;;-0.90;99.90;;;;;;5122573;28;20483;-77
2022/11/27 00:51:17;;;;;;;23.60;16.20;;;-0.90;99.90;;;;;;5122482;28;20443;-75
2022/11/27 00:53:46;;;;;;;22.30;15.93;;;-0.90;99.90;;;;;;5124995;27;20562;-78
2022/11/27 00:56:18;;;;;;;22.27;16.67;;;-0.90;99.90;;;;;;5142595;27;20546;-78
2022/11/27 00:58:46;;;;;;;21.00;16.27;;;-0.90;99.90;;;;;;5142368;27;20474;-76
2022/11/27 01:01:17;;;;;;;23.53;16.23;;;-0.90;99.90;;;;;;5141573;27;20462;-77
2022/11/27 01:03:46;;;;;;;20.93;16.13;;;-0.90;99.90;;;;;;5122973;27;20535;-76
2022/11/27 01:06:15;;;;;;;19.67;15.37;;;-0.90;99.90;;;;;;5121330;28;20455;-76
2022/11/27 01:08:44;;;;;;;21.97;16.20;;;-0.90;99.90;;;;;;5121605;28;20443;-76
2022/11/27 01:11:15;;;;;;;22.80;16.00;;;-0.90;99.90;;;;;;5121425;27;20463;-74
2022/11/27 01:13:45;;;;;;;20.83;15.43;;;-1.00;99.90;;;;;;5117071;28;20440;-78
2022/11/27 01:16:15;;;;;;;22.90;17.80;;;-1.00;99.90;;;;;;5115701;27;20448;-75
2022/11/27 01:18:45;;;;;;;27.87;18.77;;;-1.00;99.90;;;;;;5115231;28;21092;-76
2022/11/27 01:21:15;;;;;;;57.73;21.47;;;-1.00;99.90;;;;;;5134055;27;20463;-75
2022/11/27 01:23:43;;;;;;;62.37;21.67;;;-1.00;99.90;;;;;;5136363;27;20443;-78
2022/11/27 01:26:12;;;;;;;32.40;18.90;;;-1.00;99.90;;;;;;5141113;27;20458;-74
2022/11/27 01:28:41;;;;;;;169.83;25.90;;;-1.00;99.90;;;;;;5145399;27;20436;-76
2022/11/27 01:31:15;;;;;;;161.40;24.07;;;-1.00;99.90;;;;;;5127050;27;20464;-78
2022/11/27 01:33:43;;;;;;;78.27;20.17;;;-1.10;99.90;;;;;;5121579;28;20437;-77
2022/11/27 01:36:13;;;;;;;44.33;20.17;;;-1.10;99.90;;;;;;5121129;28;20459;-78
2022/11/27 01:38:41;;;;;;;82.40;21.87;;;-1.10;99.90;;;;;;5119415;27;20487;-76
2022/11/27 01:41:15;;;;;;;40.77;20.87;;;-1.10;99.90;;;;;;5133230;27;20458;-77
2022/11/27 01:43:46;;;;;;;29.57;19.73;;;-1.10;99.90;;;;;;5139108;27;20449;-75
2022/11/27 01:46:28;;;;;;;24.63;18.47;;;-1.10;99.90;;;;;;5124329;27;20590;-77
2022/11/27 01:49:00;;;;;;;26.00;19.03;;;-1.10;99.90;;;;;;5119876;28;20427;-77
2022/11/27 01:51:30;;;;;;;26.40;18.80;;;-1.10;99.90;;;;;;5119939;28;20448;-79
2022/11/27 01:53:58;;;;;;;25.93;19.30;;;-1.00;99.90;;;;;;5119851;27;20480;-79
2022/11/27 01:56:28;;;;;;;27.10;18.57;;;-1.10;99.90;;;;;;5119628;28;20497;-79
2022/11/27 01:58:58;;;;;;;25.13;18.27;;;-1.10;99.90;;;;;;5119490;28;20480;-76
2022/11/27 02:01:27;;;;;;;49.47;18.50;;;-1.10;99.90;;;;;;5117218;28;20449;-79
2022/11/27 02:03:59;;;;;;;27.53;17.73;;;-1.10;99.90;;;;;;5116084;28;20463;-78
2022/11/27 02:06:28;;;;;;;36.47;18.10;;;-1.10;99.90;;;;;;5115837;28;20429;-79
2022/11/27 02:08:56;;;;;;;53.10;19.13;;;-1.10;99.90;;;;;;5115567;28;20451;-78
2022/11/27 02:11:33;;;;;;;44.97;18.73;;;-1.10;99.90;;;;;;5115086;28;20459;-79
2022/11/27 02:14:09;;;;;;;42.90;17.93;;;-1.10;99.90;;;;;;5113663;28;20788;-78
2022/11/27 02:16:48;;;;;;;50.13;18.70;;;-1.10;99.90;;;;;;5096064;28;20419;-79
2022/11/27 02:19:29;;;;;;;34.93;18.17;;;-1.10;99.90;;;;;;5113591;28;20478;-79
2022/11/27 02:22:03;;;;;;;49.83;17.70;;;-1.10;99.90;;;;;;5113561;28;20463;-76
2022/11/27 02:24:56;;;;;;;38.10;17.03;;;-1.00;99.90;;;;;;5113540;28;20451;-78
2022/11/27 02:27:47;;;;;;;44.53;15.60;;;-1.00;99.90;;;;;;5113525;27;20459;-78
2022/11/27 02:30:17;;;;;;;71.00;17.00;;;-1.00;99.90;;;;;;5113167;28;20516;-74
2022/11/27 02:32:49;;;;;;;43.53;14.17;;;-1.10;99.90;;;;;;5113162;28;20791;-75
2022/11/27 02:35:23;;;;;;;66.27;15.50;;;-1.10;99.90;;;;;;5117539;28;20424;-78
2022/11/27 02:37:57;;;;;;;45.23;15.33;;;-1.10;99.90;;;;;;5117686;27;20491;-76
2022/11/27 02:40:31;;;;;;;41.43;13.60;;;-1.20;99.90;;;;;;5133865;27;20439;-77
2022/11/27 02:43:05;;;;;;;61.40;14.93;;;-1.20;99.90;;;;;;5133822;27;20768;-76
2022/11/27 02:45:39;;;;;;;38.60;12.50;;;-1.20;99.90;;;;;;5118746;27;20466;-76
2022/11/27 02:48:09;;;;;;;36.27;13.10;;;-1.20;99.90;;;;;;5113408;28;20802;-78
2022/11/27 02:50:39;;;;;;;39.13;13.60;;;-1.30;99.90;;;;;;5113673;28;20463;-73
2022/11/27 02:53:15;;;;;;;55.43;12.77;;;-1.30;99.90;;;;;;5112658;27;20480;-78
2022/11/27 02:55:44;;;;;;;48.47;13.27;;;-1.30;99.90;;;;;;5112316;28;20452;-78
2022/11/27 02:58:21;;;;;;;32.27;12.47;;;-1.30;99.90;;;;;;5112953;28;20482;-78
2022/11/27 03:00:51;;;;;;;54.00;12.97;;;-1.50;99.90;;;;;;5112648;28;20460;-76
2022/11/27 03:03:24;;;;;;;27.67;12.67;;;-1.50;99.90;;;;;;5112387;28;20452;-78
2022/11/27 03:05:55;;;;;;;41.80;13.57;;;-1.50;99.90;;;;;;5112976;28;20787;-77
2022/11/27 03:08:30;;;;;;;24.30;12.90;;;-1.60;99.90;;;;;;5115635;28;20466;-77
2022/11/27 03:11:03;;;;;;;17.37;12.07;;;-1.60;99.90;;;;;;5132817;27;20499;-78
2022/11/27 03:13:36;;;;;;;19.00;12.63;;;-1.60;99.90;;;;;;5132804;27;20881;-78
2022/11/27 03:16:11;;;;;;;26.47;13.17;;;-1.60;99.90;;;;;;5129968;28;20468;-78
2022/11/27 03:18:43;;;;;;;23.37;13.63;;;-1.60;99.90;;;;;;5113643;28;20718;-75
2022/11/27 03:21:26;;;;;;;28.70;14.17;;;-1.60;99.90;;;;;;5112387;28;20467;-77
2022/11/27 03:23:55;;;;;;;21.67;13.13;;;-1.60;99.90;;;;;;5118606;28;20469;-74
2022/11/27 03:26:23;;;;;;;27.83;14.57;;;-1.60;99.90;;;;;;5122261;28;20951;-76
2022/11/27 03:28:53;;;;;;;40.43;15.67;;;-1.60;99.90;;;;;;5115213;28;20441;-76
2022/11/27 03:31:22;;;;;;;27.47;14.17;;;-1.60;99.90;;;;;;5140388;28;20439;-76
2022/11/27 03:33:51;;;;;;;23.50;14.87;;;-1.50;99.90;;;;;;5121386;28;20497;-73
2022/11/27 03:36:21;;;;;;;35.23;15.50;;;-1.60;99.90;;;;;;5116775;28;20458;-75
2022/11/27 03:38:51;;;;;;;25.13;15.63;;;-1.50;99.90;;;;;;5125026;28;20504;-74
2022/11/27 03:41:26;;;;;;;20.97;14.73;;;-1.50;99.90;;;;;;5113910;28;20464;-76
2022/11/27 03:44:04;;;;;;;20.40;15.90;;;-1.50;99.90;;;;;;5112096;28;20471;-74
2022/11/27 03:46:43;;;;;;;32.77;16.83;;;-1.50;99.90;;;;;;5114602;28;20996;-75
2022/11/27 03:49:21;;;;;;;22.83;16.57;;;-1.60;99.90;;;;;;5117118;28;20450;-74
2022/11/27 03:51:58;;;;;;;40.60;17.20;;;-1.50;99.90;;;;;;5115862;27;20435;-76
2022/11/27 03:54:36;;;;;;;42.27;17.73;;;-1.50;99.90;;;;;;5129765;27;20466;-78
2022/11/27 03:57:14;;;;;;;51.07;18.50;;;-1.50;99.90;;;;;;5137119;27;20416;-80
2022/11/27 03:59:45;;;;;;;48.77;18.33;;;-1.40;99.90;;;;;;5137023;27;20478;-80
2022/11/27 04:02:16;;;;;;;74.10;18.63;;;-1.40;99.90;;;;;;5136959;27;20423;-79
2022/11/27 04:04:48;;;;;;;49.73;18.23;;;-1.40;99.90;;;;;;5123299;27;20466;-77
2022/11/27 04:07:17;;;;;;;41.40;16.80;;;-1.30;99.90;;;;;;5136903;27;20538;-78
2022/11/27 04:09:46;;;;;;;93.50;19.57;;;-1.30;99.90;;;;;;5120749;27;20536;-78
2022/11/27 04:12:14;;;;;;;69.30;18.70;;;-1.30;99.90;;;;;;5124199;27;20431;-78
2022/11/27 04:14:42;;;;;;;25.53;16.47;;;-1.30;99.90;;;;;;5136936;27;20790;-79
2022/11/27 04:17:10;;;;;;;40.00;16.17;;;-1.20;99.90;;;;;;5136432;27;20951;-78
2022/11/27 04:19:39;;;;;;;32.67;14.33;;;-1.30;99.90;;;;;;5136505;27;20486;-78
2022/11/27 04:22:07;;;;;;;52.03;15.27;;;-1.30;99.90;;;;;;5136397;27;20467;-79
2022/11/27 04:24:35;;;;;;;49.27;15.23;;;-1.30;99.90;;;;;;5136542;27;20442;-75
2022/11/27 04:27:03;;;;;;;151.13;18.90;;;-1.40;99.90;;;;;;5135850;27;20606;-80
2022/11/27 04:29:31;;;;;;;158.53;16.83;;;-1.40;99.90;;;;;;5136536;27;20439;-80
2022/11/27 04:32:00;;;;;;;148.20;17.50;;;-1.50;99.90;;;;;;5125902;27;20475;-78
2022/11/27 04:34:28;;;;;;;151.43;17.13;;;-1.50;99.90;;;;;;5115550;28;20475;-78
2022/11/27 04:36:58;;;;;;;100.77;17.33;;;-1.50;99.90;;;;;;5129565;27;20448;-79
2022/11/27 04:39:26;;;;;;;48.17;16.57;;;-1.40;99.90;;;;;;5122152;27;20487;-78
2022/11/27 04:41:54;;;;;;;39.27;15.30;;;-1.50;99.90;;;;;;5115366;28;20775;-80
2022/11/27 04:44:22;;;;;;;24.27;15.03;;;-1.40;99.90;;;;;;5115054;28;20455;-78
2022/11/27 04:46:50;;;;;;;22.20;14.40;;;-1.40;99.90;;;;;;5115296;28;20448;-77
2022/11/27 04:49:19;;;;;;;17.00;13.50;;;-1.40;99.90;;;;;;5127791;27;21010;-77
2022/11/27 04:51:47;;;;;;;18.07;14.17;;;-1.50;99.90;;;;;;5135671;27;20459;-76
2022/11/27 04:54:16;;;;;;;18.60;13.87;;;-1.50;99.90;;;;;;5135353;27;20464;-74
2022/11/27 04:56:46;;;;;;;16.90;13.30;;;-1.50;99.90;;;;;;5124283;27;20492;-78
2022/11/27 04:59:14;;;;;;;16.90;13.60;;;-1.50;99.90;;;;;;5113690;28;20489;-78
2022/11/27 05:01:42;;;;;;;15.90;13.60;;;-1.60;99.90;;;;;;5114806;28;20466;-78
2022/11/27 05:04:10;;;;;;;15.87;12.80;;;-1.60;99.90;;;;;;5115187;28;20949;-78
2022/11/27 05:06:38;;;;;;;15.43;12.90;;;-1.60;99.90;;;;;;5114676;28;20472;-78
2022/11/27 05:09:06;;;;;;;15.93;12.43;;;-1.80;99.90;;;;;;5114934;28;20451;-78
2022/11/27 05:11:36;;;;;;;15.53;12.60;;;-1.70;99.90;;;;;;5114856;28;20437;-79
2022/11/27 05:14:16;;;;;;;15.37;12.20;;;-1.70;99.90;;;;;;5114449;27;20448;-79
2022/11/27 05:16:47;;;;;;;15.77;12.27;;;-1.70;99.90;;;;;;5114838;28;20455;-78
2022/11/27 05:19:16;;;;;;;15.07;12.20;;;-1.70;99.90;;;;;;5114774;28;20480;-78
2022/11/27 05:21:46;;;;;;;14.20;11.60;;;-1.70;99.90;;;;;;5115143;27;20488;-78
2022/11/27 05:24:15;;;;;;;13.67;11.57;;;-1.70;99.90;;;;;;5117297;27;20598;-78
2022/11/27 05:26:45;;;;;;;13.97;11.67;;;-1.80;99.90;;;;;;5135039;27;20451;-78
2022/11/27 05:29:14;;;;;;;12.67;10.80;;;-1.80;99.90;;;;;;5135244;27;20453;-77
2022/11/27 05:31:43;;;;;;;12.50;10.57;;;-1.80;99.90;;;;;;5134184;27;20550;-80
2022/11/27 05:34:12;;;;;;;12.50;10.17;;;-1.80;99.90;;;;;;5120474;27;20471;-77
2022/11/27 05:36:40;;;;;;;10.83;9.60;;;-1.80;99.90;;;;;;5135048;27;20455;-80
2022/11/27 05:39:10;;;;;;;11.77;9.70;;;-1.90;99.90;;;;;;5134389;27;20518;-78
2022/11/27 05:41:40;;;;;;;11.63;10.00;;;-1.90;99.90;;;;;;5122650;27;20463;-77
2022/11/27 05:44:10;;;;;;;11.43;9.77;;;-1.90;99.90;;;;;;5114034;28;20451;-79
2022/11/27 05:46:39;;;;;;;10.27;9.13;;;-1.90;99.90;;;;;;5113707;28;20451;-78
2022/11/27 05:49:07;;;;;;;10.93;9.27;;;-2.00;99.90;;;;;;5122754;27;20502;-78
2022/11/27 05:51:36;;;;;;;10.73;9.07;;;-2.00;99.90;;;;;;5134874;27;20766;-78
2022/11/27 05:54:04;;;;;;;11.90;9.27;;;-2.00;99.90;;;;;;5134270;27;20447;-77
2022/11/27 05:56:32;;;;;;;11.53;9.73;;;-2.00;99.90;;;;;;5131642;27;20546;-79
2022/11/27 05:59:00;;;;;;;10.47;9.00;;;-2.00;99.90;;;;;;5113492;27;20954;-79
2022/11/27 06:01:30;;;;;;;12.40;9.90;;;-2.00;99.90;;;;;;5113883;28;20972;-78
2022/11/27 06:03:58;;;;;;;11.13;9.57;;;-2.00;99.90;;;;;;5114081;28;20448;-80
2022/11/27 06:06:26;;;;;;;11.80;9.57;;;-2.00;99.90;;;;;;5113906;28;20487;-77
2022/11/27 06:08:54;;;;;;;12.30;10.23;;;-2.00;99.90;;;;;;5113881;28;20464;-78
2022/11/27 06:11:23;;;;;;;13.13;10.27;;;-2.00;99.90;;;;;;5113546;28;20444;-80
2022/11/27 06:13:51;;;;;;;14.03;10.70;;;-2.00;99.90;;;;;;5113559;28;20466;-77
2022/11/27 06:16:22;;;;;;;15.50;10.93;;;-2.00;99.90;;;;;;5114101;28;20467;-78
2022/11/27 06:18:53;;;;;;;15.20;11.53;;;-2.00;99.90;;;;;;5129635;27;20843;-78
2022/11/27 06:21:23;;;;;;;43.53;12.57;;;-2.00;99.90;;;;;;5134351;27;20475;-77
2022/11/27 06:23:55;;;;;;;33.33;12.17;;;-2.00;99.90;;;;;;5133396;27;20451;-80
2022/11/27 06:26:25;;;;;;;34.67;12.50;;;-2.00;99.90;;;;;;5120622;27;20541;-81
2022/11/27 06:28:54;;;;;;;131.77;15.93;;;-2.00;99.90;;;;;;5114333;28;20455;-77
2022/11/27 06:31:24;;;;;;;65.90;13.37;;;-2.00;99.90;;;;;;5113867;28;20452;-75
2022/11/27 06:33:55;;;;;;;194.30;17.30;;;-2.00;99.90;;;;;;5123602;27;20960;-74
2022/11/27 06:36:26;;;;;;;111.30;14.10;;;-1.90;99.90;;;;;;5134070;27;20426;-75
2022/11/27 06:38:54;;;;;;;118.40;13.33;;;-2.00;99.90;;;;;;5135973;27;20445;-79
2022/11/27 06:41:25;;;;;;;123.70;14.57;;;-2.00;99.90;;;;;;5134886;27;20483;-75
2022/11/27 06:43:54;;;;;;;223.93;17.37;;;-2.00;99.90;;;;;;5128067;27;20471;-78
2022/11/27 06:46:23;;;;;;;212.17;15.83;;;-2.10;99.90;;;;;;5125772;27;20443;-78
2022/11/27 06:48:53;;;;;;;296.07;19.70;;;-2.10;99.90;;;;;;5134206;27;20455;-81
2022/11/27 06:51:24;;;;;;;54.97;12.10;;;-2.10;99.90;;;;;;5132479;27;20512;-78
2022/11/27 06:53:53;;;;;;;97.67;13.70;;;-2.10;99.90;;;;;;5133417;27;20911;-79
2022/11/27 06:56:24;;;;;;;94.03;13.67;;;-2.10;99.90;;;;;;5133832;27;20795;-78
2022/11/27 06:58:53;;;;;;;148.90;15.03;;;-2.00;99.90;;;;;;5127398;27;20661;-78
2022/11/27 07:01:23;;;;;;;110.20;14.30;;;-2.10;99.90;;;;;;5123836;27;20475;-80
2022/11/27 07:03:53;;;;;;;139.03;15.30;;;-2.10;99.90;;;;;;5134349;27;20463;-76
2022/11/27 07:06:24;;;;;;;193.20;16.43;;;-2.10;99.90;;;;;;5133594;27;20542;-77
2022/11/27 07:08:53;;;;;;;105.73;15.30;;;-2.20;99.90;;;;;;5131983;27;20470;-77
2022/11/27 07:11:23;;;;;;;44.63;13.27;;;-2.10;99.90;;;;;;5133700;27;20445;-80
2022/11/27 07:13:54;;;;;;;303.90;18.60;;;-2.00;99.90;;;;;;5133038;27;20422;-78
2022/11/27 07:16:23;;;;;;;88.90;12.30;;;-2.00;99.90;;;;;;5117394;27;20467;-77
2022/11/27 07:18:54;;;;;;;127.17;11.67;;;-2.00;99.90;;;;;;5113105;28;20837;-78
2022/11/27 07:21:23;;;;;;;133.20;12.60;;;-2.10;99.90;;;;;;5111817;28;20486;-80
2022/11/27 07:23:51;;;;;;;106.90;12.23;;;-2.10;99.90;;;;;;5112076;28;20972;-78
2022/11/27 07:26:22;;;;;;;69.93;11.80;;;-2.20;99.90;;;;;;5112024;28;20472;-79
2022/11/27 07:28:53;;;;;;;62.23;10.77;;;-2.10;99.90;;;;;;5112499;28;20440;-80
2022/11/27 07:31:25;;;;;;;75.80;11.83;;;-2.10;99.90;;;;;;5112827;28;20459;-78
2022/11/27 07:33:55;;;;;;;43.53;10.60;;;-2.00;99.90;;;;;;5120814;28;20443;-78
2022/11/27 07:36:25;;;;;;;42.63;10.57;;;-2.00;99.90;;;;;;5132714;28;20443;-76
2022/11/27 07:38:53;;;;;;;122.27;13.20;;;-2.00;99.90;;;;;;5132451;28;20455;-77
2022/11/27 07:41:22;;;;;;;47.17;11.03;;;-2.00;99.90;;;;;;5124307;28;20585;-79
2022/11/27 07:43:50;;;;;;;100.97;12.00;;;-1.90;99.90;;;;;;5125316;27;20579;-80
2022/11/27 07:46:20;;;;;;;109.60;11.73;;;-1.90;99.90;;;;;;5137025;27;20459;-81
2022/11/27 07:48:48;;;;;;;55.60;11.93;;;-1.90;99.90;;;;;;5141598;27;20461;-76
2022/11/27 07:51:20;;;;;;;35.70;11.43;;;-1.80;99.90;;;;;;5124469;28;20945;-77
2022/11/27 07:53:50;;;;;;;32.80;10.07;;;-1.80;99.90;;;;;;5114276;28;20474;-77
2022/11/27 07:56:18;;;;;;;25.47;10.53;;;-1.70;99.90;;;;;;5112337;28;20453;-78
2022/11/27 07:58:47;;;;;;;34.53;9.63;;;-1.60;99.90;;;;;;5112154;28;20455;-76
2022/11/27 08:01:17;;;;;;;62.97;11.03;;;-1.60;99.90;;;;;;5111945;28;20476;-75
2022/11/27 08:03:47;;;;;;;140.93;13.07;;;-1.70;99.90;;;;;;5111971;28;20828;-77
2022/11/27 08:06:20;;;;;;;102.20;13.43;;;-1.60;99.90;;;;;;5117858;27;20456;-77
2022/11/27 08:08:49;;;;;;;79.53;12.23;;;-1.70;99.90;;;;;;5129987;27;20948;-78
2022/11/27 08:11:20;;;;;;;57.47;12.53;;;-1.70;99.90;;;;;;5138738;27;20861;-75
2022/11/27 08:13:48;;;;;;;32.77;12.10;;;-1.70;99.90;;;;;;5137223;27;20462;-76
2022/11/27 08:16:17;;;;;;;31.20;10.67;;;-1.60;99.90;;;;;;5132656;27;20471;-77
2022/11/27 08:18:45;;;;;;;55.77;12.23;;;-1.50;99.90;;;;;;5133476;28;20463;-77
2022/11/27 08:21:13;;;;;;;88.53;13.17;;;-1.30;99.90;;;;;;5132751;28;20498;-76
2022/11/27 08:23:42;;;;;;;84.67;13.10;;;-1.30;99.90;;;;;;5131986;28;21156;-77
2022/11/27 08:26:12;;;;;;;108.97;12.60;;;-1.10;99.90;;;;;;5132718;28;20459;-77
2022/11/27 08:28:41;;;;;;;92.17;13.03;;;-1.20;99.90;;;;;;5133657;28;20459;-75
2022/11/27 08:31:12;;;;;;;71.10;11.53;;;-1.10;99.90;;;;;;5121173;28;20511;-77
2022/11/27 08:33:40;;;;;;;58.10;12.83;;;-1.10;99.90;;;;;;5115726;28;20541;-78
2022/11/27 08:36:09;;;;;;;47.30;12.40;;;-1.10;99.90;;;;;;5116780;28;20577;-75
2022/11/27 08:38:46;;;;;;;43.47;12.50;;;-1.00;99.90;;;;;;5115885;28;20922;-75
2022/11/27 08:41:14;;;;;;;46.07;13.30;;;-1.00;99.90;;;;;;5117286;28;20485;-76
2022/11/27 08:43:42;;;;;;;80.07;13.43;;;-0.90;99.90;;;;;;5114776;28;20546;-76
2022/11/27 08:46:11;;;;;;;62.47;11.50;;;-0.80;99.90;;;;;;5115461;28;20455;-75
2022/11/27 08:48:42;;;;;;;74.10;11.10;;;-0.80;99.90;;;;;;5115322;28;20442;-78
2022/11/27 08:51:12;;;;;;;45.27;9.63;;;-0.80;99.90;;;;;;5114190;28;20530;-77
2022/11/27 08:53:43;;;;;;;31.00;9.97;;;-0.80;99.90;;;;;;5117919;28;20460;-74
2022/11/27 08:56:16;;;;;;;33.77;10.30;;;-0.80;99.90;;;;;;5117786;28;20460;-78
2022/11/27 08:58:46;;;;;;;55.63;10.20;;;-0.70;99.90;;;;;;5119051;27;20502;-73
2022/11/27 09:01:16;;;;;;;75.73;10.40;;;-0.70;99.90;;;;;;5117807;28;20989;-76
2022/11/27 09:03:44;;;;;;;31.43;10.47;;;-0.60;99.90;;;;;;5116136;28;20444;-74
2022/11/27 09:06:15;;;;;;;45.27;10.00;;;-0.50;99.90;;;;;;5117135;28;20455;-73
2022/11/27 09:08:44;;;;;;;57.17;10.30;;;-0.50;99.90;;;;;;5116754;28;20467;-74
2022/11/27 09:11:16;;;;;;;29.87;10.23;;;-0.60;99.90;;;;;;5115564;28;20557;-79
2022/11/27 09:13:44;;;;;;;39.03;10.37;;;-0.60;99.90;;;;;;5115211;28;20788;-78
2022/11/27 09:16:15;;;;;;;31.20;11.27;;;-0.40;99.90;;;;;;5114719;28;20828;-79
2022/11/27 09:18:45;;;;;;;37.33;10.67;;;-0.40;99.90;;;;;;5115301;27;20460;-80
2022/11/27 09:21:14;;;;;;;18.17;11.27;;;-0.30;99.90;;;;;;5115928;28;20988;-76
2022/11/27 09:23:42;;;;;;;24.53;11.67;;;-0.20;99.90;;;;;;5115358;28;20811;-75
2022/11/27 09:26:12;;;;;;;63.07;11.73;;;-0.20;99.90;;;;;;5124541;27;20221;-77
2022/11/27 09:28:42;;;;;;;25.03;11.07;;;0.00;99.90;;;;;;5115028;28;20958;-80
2022/11/27 09:31:13;;;;;;;23.87;11.00;;;0.00;99.90;;;;;;5115573;27;20479;-74
2022/11/27 09:33:42;;;;;;;27.17;11.80;;;0.00;99.90;;;;;;5114461;28;20460;-81
2022/11/27 09:36:11;;;;;;;16.70;12.33;;;0.10;99.90;;;;;;5128789;27;20466;-78
2022/11/27 09:38:41;;;;;;;30.20;12.47;;;0.10;99.90;;;;;;5135725;27;20461;-75
2022/11/27 09:41:26;;;;;;;38.63;12.37;;;0.00;99.90;;;;;;5135153;27;20201;-78
2022/11/27 09:43:59;;;;;;;25.93;13.73;;;0.00;99.90;;;;;;5127773;27;20727;-74
2022/11/27 09:46:31;;;;;;;49.27;14.60;;;0.00;99.90;;;;;;5115123;28;20428;-76
2022/11/27 09:49:03;;;;;;;24.87;12.73;;;0.00;99.90;;;;;;5114869;28;20516;-78
2022/11/27 09:51:35;;;;;;;20.47;12.87;;;0.10;99.90;;;;;;5115013;28;20463;-75
2022/11/27 09:54:08;;;;;;;38.83;14.20;;;0.10;99.90;;;;;;5114772;28;20206;-76
2022/11/27 09:56:36;;;;;;;25.03;14.43;;;0.10;99.90;;;;;;5114784;28;20436;-74
2022/11/27 09:59:15;;;;;;;29.30;15.23;;;0.00;99.90;;;;;;5114508;28;20489;-77
2022/11/27 10:01:43;;;;;;;28.27;15.20;;;0.00;99.90;;;;;;5128813;27;20490;-77
2022/11/27 10:04:19;;;;;;;33.10;14.97;;;0.00;99.90;;;;;;5135222;27;20932;-75
2022/11/27 10:07:10;;;;;;;30.83;15.53;;;0.10;99.90;;;;;;5135336;27;20437;-75
2022/11/27 10:09:46;;;;;;;38.27;16.70;;;0.10;99.90;;;;;;5125054;27;20463;-77
2022/11/27 10:12:22;;;;;;;33.00;15.00;;;0.10;99.90;;;;;;5116201;28;20443;-74
2022/11/27 10:15:04;;;;;;;24.40;15.13;;;0.10;99.90;;;;;;5130179;27;20456;-80
2022/11/27 10:17:39;;;;;;;22.93;15.40;;;0.10;99.90;;;;;;5136281;27;20486;-77
2022/11/27 10:20:19;;;;;;;31.47;16.63;;;0.10;99.90;;;;;;5146139;27;20427;-77
2022/11/27 10:22:55;;;;;;;34.83;15.57;;;0.10;99.90;;;;;;5152134;27;20741;-73
2022/11/27 10:25:29;;;;;;;33.67;16.07;;;0.10;99.90;;;;;;5130672;27;20471;-76
2022/11/27 10:28:06;;;;;;;38.87;14.43;;;0.10;99.90;;;;;;5122955;27;20198;-76
2022/11/27 10:30:42;;;;;;;20.83;13.70;;;0.20;99.90;;;;;;5139908;27;20443;-76
2022/11/27 10:33:17;;;;;;;26.00;13.53;;;0.20;99.90;;;;;;5137126;27;20903;-75
2022/11/27 10:35:49;;;;;;;18.10;13.40;;;0.20;99.90;;;;;;5115345;28;20224;-74
2022/11/27 10:38:21;;;;;;;14.60;11.77;;;0.40;99.90;;;;;;5117622;28;20795;-75
2022/11/27 10:40:58;;;;;;;14.90;11.73;;;0.60;99.90;;;;;;5133183;27;20208;-75
2022/11/27 10:43:26;;;;;;;17.80;12.50;;;0.80;99.90;;;;;;5136451;27;20223;-74
2022/11/27 10:46:01;;;;;;;15.43;12.00;;;0.90;99.90;;;;;;5138720;27;20205;-76
2022/11/27 10:48:29;;;;;;;14.50;11.63;;;1.00;99.90;;;;;;5128868;27;20250;-78
2022/11/27 10:50:59;;;;;;;14.03;11.33;;;1.10;99.90;;;;;;5115307;28;20209;-74
2022/11/27 10:53:30;;;;;;;13.57;10.90;;;1.00;99.90;;;;;;5114927;28;20238;-76
2022/11/27 10:56:15;;;;;;;14.13;11.23;;;1.10;99.90;;;;;;5112780;28;20202;-77
2022/11/27 10:58:47;;;;;;;15.50;11.83;;;1.10;99.90;;;;;;5114114;28;20241;-75
2022/11/27 11:01:18;;;;;;;16.63;12.30;;;1.20;99.90;;;;;;5113511;28;20187;-76
2022/11/27 11:03:47;;;;;;;17.03;12.43;;;1.30;99.90;;;;;;5113287;28;20299;-79
2022/11/27 11:06:18;;;;;;;17.00;13.77;;;1.20;99.90;;;;;;5113190;28;20218;-78
2022/11/27 11:09:02;;;;;;;17.57;12.93;;;1.30;99.90;;;;;;5115234;28;20509;-75
2022/11/27 11:11:30;;;;;;;18.20;13.53;;;1.20;99.90;;;;;;5113229;28;20531;-75
2022/11/27 11:13:58;;;;;;;16.93;13.23;;;1.40;99.90;;;;;;5114366;28;20202;-77
2022/11/27 11:16:30;;;;;;;18.67;14.30;;;1.40;99.90;;;;;;5112863;28;20206;-79
2022/11/27 11:19:05;;;;;;;18.70;14.20;;;1.40;99.90;;;;;;5113224;28;20654;-79
2022/11/27 11:21:35;;;;;;;28.70;15.43;;;1.30;99.90;;;;;;5113041;28;20268;-79
2022/11/27 11:24:05;;;;;;;21.20;15.70;;;1.20;99.90;;;;;;5112480;28;20226;-76
2022/11/27 11:26:37;;;;;;;19.10;15.57;;;1.00;99.90;;;;;;5121821;28;20208;-77
2022/11/27 11:29:17;;;;;;;23.37;17.20;;;0.90;99.90;;;;;;5133788;28;20642;-77
2022/11/27 11:31:47;;;;;;;23.93;17.17;;;1.10;99.90;;;;;;5130512;27;20288;-76
2022/11/27 11:34:22;;;;;;;20.77;15.97;;;1.20;99.90;;;;;;5132942;28;20439;-75
2022/11/27 11:36:59;;;;;;;22.77;16.40;;;1.20;99.90;;;;;;5130990;28;20483;-76
2022/11/27 11:39:29;;;;;;;21.60;16.33;;;1.10;99.90;;;;;;5121422;28;20240;-75
2022/11/27 11:41:58;;;;;;;22.77;16.90;;;1.10;99.90;;;;;;5133040;28;20210;-73
2022/11/27 11:44:33;;;;;;;24.93;17.97;;;1.10;99.90;;;;;;5133313;28;20241;-74
2022/11/27 11:47:03;;;;;;;22.77;17.00;;;1.20;99.90;;;;;;5133169;28;20633;-76
2022/11/27 11:49:34;;;;;;;20.60;15.97;;;1.30;99.90;;;;;;5124353;28;20212;-77
2022/11/27 11:52:31;;;;;;;18.27;15.03;;;1.30;99.90;;;;;;5132776;28;20485;-78
2022/11/27 11:55:03;;;;;;;20.47;15.13;;;1.30;99.90;;;;;;5131800;27;20289;-76
2022/11/27 11:57:59;;;;;;;19.67;15.70;;;1.20;99.90;;;;;;5137119;27;20493;-78
2022/11/27 12:00:37;;;;;;;18.47;14.63;;;1.30;99.90;;;;;;5137470;27;20463;-75
2022/11/27 12:03:45;;;;;;;19.50;15.43;;;1.20;99.90;;;;;;5135176;27;20229;-72
2022/11/27 12:06:28;;;;;;;17.23;14.17;;;1.20;99.90;;;;;;5130701;27;20975;-75
2022/11/27 12:09:06;;;;;;;16.10;14.03;;;1.40;99.90;;;;;;5157107;27;20181;-78
2022/11/27 12:11:39;;;;;;;17.17;13.53;;;1.50;99.90;;;;;;5140163;27;20197;-74
2022/11/27 12:14:18;;;;;;;16.57;13.97;;;1.60;99.90;;;;;;5116673;28;20194;-75
2022/11/27 12:17:01;;;;;;;16.30;12.83;;;1.50;99.90;;;;;;5116918;28;20186;-74
2022/11/27 12:20:04;;;;;;;15.03;12.53;;;1.60;99.90;;;;;;5116159;28;20435;-75
2022/11/27 12:23:00;;;;;;;16.17;12.00;;;1.60;99.90;;;;;;5115078;27;20285;-76
2022/11/27 12:25:33;;;;;;;22.47;15.83;;;1.60;99.90;;;;;;5125275;27;20210;-76
2022/11/27 12:28:17;;;;;;;15.53;12.67;;;2.80;99.90;;;;;;5133018;27;20232;-77
2022/11/27 12:30:54;;;;;;;12.73;10.83;;;4.10;99.90;;;;;;5124504;27;20316;-73
2022/11/27 12:33:39;;;;;;;11.87;9.93;;;3.30;99.90;;;;;;5126481;27;20200;-76
2022/11/27 12:36:20;;;;;;;14.57;11.30;;;2.90;99.90;;;;;;5116625;28;20259;-78
2022/11/27 12:39:00;;;;;;;14.70;12.23;;;2.80;99.90;;;;;;5115984;28;20276;-75
2022/11/27 12:41:59;;;;;;;12.93;11.53;;;2.60;99.90;;;;;;5116178;28;20256;-76
2022/11/27 12:44:35;;;;;;;12.70;10.90;;;2.60;99.90;;;;;;5118306;28;20217;-77
2022/11/27 12:47:07;;;;;;;12.63;11.07;;;2.20;99.90;;;;;;5115826;28;20197;-76
2022/11/27 12:49:41;;;;;;;13.53;11.53;;;2.20;99.90;;;;;;5115464;28;20186;-75
2022/11/27 12:52:16;;;;;;;14.13;11.57;;;2.10;99.90;;;;;;5115481;27;20201;-78